Buoy 46611

sailwx.info

Track history (hours):
 
Tides and Currents Weather Stations Pressure Air Temp Water Temp Dewpoint Dewpoint Depression Visibility Wind Speed Wind Dir Waves Ship Positions

Drifting buoy 46611

Last reported at 2014-Sep-02 18:00 UTC. Time now 2014-Sep-02 18:57 UTC.
Position N 49°41' W 140°43'.

Barometer 1028.3 mb
Water temperature 15.7 ° C

Date/timePositionNaut miles runAvg speedWind from/ knotsBaromVisibWave heightAir tempDewpointWater temp
2014-Sep-02 18:00N 49°41' W 140°43'0 0.2 1028.3 15.7
2014-Sep-02 16:00N 49°41' W 140°43'1 0.6 1027.2 15.7
2014-Sep-02 15:00N 49°40' W 140°43'1 0.7 1026.8 15.7
2014-Sep-02 14:00N 49°41' W 140°42'0 0.4 1026.2 15.7
2014-Sep-02 13:00N 49°41' W 140°43'1 1.1 1026.1 15.7
2014-Sep-02 12:00N 49°42' W 140°44'1 0.7 1025.9 15.7
2014-Sep-02 11:00N 49°41' W 140°45'0 0.0 1025.6 15.7
2014-Sep-02 08:00N 49°41' W 140°45'1 0.6 1024.4 15.7
2014-Sep-02 07:00N 49°41' W 140°45'0 0.0 1023.8 15.7
2014-Sep-02 06:00N 49°41' W 140°45'1 0.7 1023.5 15.7
2014-Sep-02 05:00N 49°40' W 140°44'0 0.0 1022.6 15.7
2014-Sep-02 04:00N 49°40' W 140°44'1 0.6 1022.0 15.7
2014-Sep-02 02:00N 49°41' W 140°43'0 0.2 1021.5 15.8
2014-Sep-02 01:00N 49°41' W 140°43'1 0.5 1021.5 15.8
2014-Sep-02 00:00N 49°41' W 140°42'0 0.2 1021.5 15.8
2014-Sep-01 23:00N 49°41' W 140°42'1 0.5 1021.7 15.7
2014-Sep-01 21:00N 49°42' W 140°43'0 0.1 1021.3 15.7
2014-Sep-01 20:00N 49°42' W 140°43'1 1.2 1021.0 15.7
2014-Sep-01 19:00N 49°43' W 140°45'0 0.2 1021.0 15.7
2014-Sep-01 17:00N 49°42' W 140°45'0 0.0 1020.7 15.7
2014-Sep-01 16:00N 49°42' W 140°45'0 0.3 1020.7 15.7
2014-Sep-01 15:00N 49°42' W 140°44'1 0.6 1020.8 15.7
2014-Sep-01 14:00N 49°42' W 140°45'0 0.2 1020.7 15.7
2014-Sep-01 13:00N 49°42' W 140°45'0 0.2 1021.0 15.7
2014-Sep-01 12:00N 49°41' W 140°45'2 2.2 1021.0 15.7
2014-Sep-01 11:00N 49°43' W 140°43'0 0.0 1021.1 15.7
2014-Sep-01 07:00N 49°43' W 140°43'1 0.9 1020.4 15.7
2014-Sep-01 06:00N 49°44' W 140°44'0 0.0 1019.8 15.7
2014-Sep-01 05:00N 49°44' W 140°44'0 0.5 1019.2 15.7
2014-Sep-01 04:00N 49°44' W 140°45'0 0.0 1018.5 15.7
2014-Sep-01 03:00N 49°44' W 140°45'0 0.2 1018.0 15.7
2014-Sep-01 01:00N 49°43' W 140°45'1 0.3 1017.2 15.7
2014-Aug-31 23:00N 49°44' W 140°46'1 0.8 1016.7 15.7
2014-Aug-31 22:00N 49°43' W 140°46'0 0.0 1016.4 15.7
2014-Aug-31 21:00N 49°43' W 140°46'0 0.2 1016.2 15.7
2014-Aug-31 20:00N 49°43' W 140°46'2 0.7 1015.7 15.7
2014-Aug-31 17:00N 49°45' W 140°44'0 0.0 1013.6 15.7
2014-Aug-31 16:00N 49°45' W 140°44'1 1.1 1012.9 15.8
2014-Aug-31 15:00N 49°45' W 140°45'0 0.0 1012.2 15.8
2014-Aug-31 14:00N 49°45' W 140°45'1 1.1 1011.7 15.8
2014-Aug-31 13:00N 49°46' W 140°46'1 0.4 1011.5 15.8
2014-Aug-31 11:00N 49°46' W 140°47'0 0.0 1011.1 15.8
2014-Aug-31 07:00N 49°46' W 140°47'1 0.6 1011.7 15.9
2014-Aug-31 06:00N 49°46' W 140°48'0 0.2 1012.4 15.9
2014-Aug-31 04:00N 49°46' W 140°48'0 0.0 1012.6 16.0
2014-Aug-31 03:00N 49°46' W 140°48'1 0.3 1013.7 16.0
2014-Aug-31 01:00N 49°46' W 140°48'0 0.5 1014.4 16.0
2014-Aug-31 00:00N 49°46' W 140°49'1 0.7 1014.7 16.0
2014-Aug-30 23:00N 49°46' W 140°48'0 0.0 1015.3 16.0
2014-Aug-30 22:00N 49°46' W 140°48'0 0.0 1015.5 16.0
2014-Aug-30 21:00N 49°46' W 140°48'1 0.8 1015.6 15.9
2014-Aug-30 20:00N 49°46' W 140°49'1 1.0 1015.4 15.9
2014-Aug-30 19:00N 49°46' W 140°48'1 0.3 1015.2 15.8
2014-Aug-30 16:00N 49°46' W 140°49'0 0.4 1014.7 15.7
2014-Aug-30 15:00N 49°46' W 140°49'0 0.2 1014.5 15.7
2014-Aug-30 14:00N 49°46' W 140°49'1 0.8 1014.1 15.7
2014-Aug-30 13:00N 49°46' W 140°48'0 0.0 1014.1 15.7
2014-Aug-30 12:00N 49°46' W 140°48'1 1.2 1013.9 15.7
2014-Aug-30 11:00N 49°47' W 140°49'0 0.0 1014.0 15.7
2014-Aug-30 10:00N 49°47' W 140°49'0 0.0 1014.0 15.7
2014-Aug-30 07:00N 49°47' W 140°49'0 0.3 1013.8 15.7
2014-Aug-30 06:00N 49°47' W 140°49'0 0.0 1013.4 15.8
2014-Aug-30 05:00N 49°47' W 140°49'0 0.1 1012.9 15.8
2014-Aug-30 04:00N 49°47' W 140°49'0 0.0 1012.9 15.8
2014-Aug-30 03:00N 49°47' W 140°49'0 0.0 1012.8 15.8
2014-Aug-30 01:00N 49°47' W 140°49'0 0.5 1012.2 15.8
2014-Aug-30 00:00N 49°47' W 140°49'0 0.5 1012.1 15.8
2014-Aug-29 23:00N 49°47' W 140°48'1 0.9 1011.9 15.8
2014-Aug-29 22:00N 49°47' W 140°50'1 0.9 1011.8 15.8
2014-Aug-29 21:00N 49°47' W 140°48'3 2.7 1011.5 15.8
2014-Aug-29 20:00N 49°49' W 140°52'0 0.4 1011.8 15.7
2014-Aug-29 19:00N 49°48' W 140°51'0 0.2 1011.7 15.8
2014-Aug-29 18:00N 49°48' W 140°51'1 0.8 1011.6 15.7
2014-Aug-29 17:00N 49°48' W 140°50'0 0.5 1011.6 15.7
2014-Aug-29 16:00N 49°48' W 140°50'1 0.3 1011.3 15.7
2014-Aug-29 12:00N 49°49' W 140°51'3 1.6 1010.8 15.8
2014-Aug-29 10:00N 49°49' W 140°56'0 0.0 1011.4 15.8
2014-Aug-29 09:00N 49°49' W 140°56'2 1.1 1011.6 15.8
2014-Aug-29 07:00N 49°50' W 140°53'0 0.0 1012.0 15.8
2014-Aug-29 06:00N 49°50' W 140°53'0 0.0 1011.9 15.8
2014-Aug-29 05:00N 49°50' W 140°53'1 1.0 1011.8 15.8
2014-Aug-29 04:00N 49°50' W 140°51'0 0.0 1011.8 15.8
2014-Aug-29 03:00N 49°50' W 140°51'0 0.0 1012.1 15.8
2014-Aug-29 02:00N 49°50' W 140°51'1 0.5 1012.3 15.9
2014-Aug-29 01:00N 49°50' W 140°52'1 0.6 1012.6 15.9
2014-Aug-29 00:00N 49°50' W 140°51'1 0.9 1013.1 15.9
2014-Aug-28 23:00N 49°50' W 140°53'0 0.0 1013.3 15.9
2014-Aug-28 22:00N 49°50' W 140°53'1 0.3 1013.8 15.9
2014-Aug-28 20:00N 49°51' W 140°53'1 0.9 1015.2 15.9
2014-Aug-28 19:00N 49°51' W 140°54'1 0.6 1015.6 15.9
2014-Aug-28 18:00N 49°51' W 140°54'1 0.6 1016.2 15.9
2014-Aug-28 16:00N 49°51' W 140°55'0 0.2 1017.3 15.9
2014-Aug-28 14:00N 49°50' W 140°55'1 0.8 1018.3 15.9
2014-Aug-28 13:00N 49°50' W 140°56'0 0.0 1018.9 15.9
2014-Aug-28 12:00N 49°50' W 140°56'1 0.2 1019.4 15.9
2014-Aug-28 07:00N 49°51' W 140°57'0 0.1 1022.4 16.0
2014-Aug-28 06:00N 49°51' W 140°57'0 0.0 1022.8 16.1
2014-Aug-28 05:00N 49°51' W 140°57'0 0.0 1023.1 16.2
2014-Aug-28 04:00N 49°51' W 140°57'1 0.5 1023.3 16.2
2014-Aug-28 02:00N 49°50' W 140°58'0 0.0 1023.9 16.2
2014-Aug-28 01:00N 49°50' W 140°58'1 1.1 1024.0 16.2
2014-Aug-28 00:00N 49°50' W 140°56'1 0.7 1024.4 16.1
2014-Aug-27 23:00N 49°50' W 140°57'1 0.8 1024.7 16.1
2014-Aug-27 22:00N 49°49' W 140°56'1 0.7 1024.9 16.0
2014-Aug-27 21:00N 49°50' W 140°57'0 0.5 1024.9 16.0
2014-Aug-27 20:00N 49°50' W 140°58'1 0.8 1025.0 15.9
2014-Aug-27 19:00N 49°50' W 140°57'0 0.4 1025.0 15.9
2014-Aug-27 18:00N 49°50' W 140°57'0 0.0 1024.9 15.9
2014-Aug-27 17:00N 49°50' W 140°57'1 0.7 1024.6 15.9
2014-Aug-27 16:00N 49°51' W 140°57'0 0.0 1024.3 15.8
2014-Aug-27 15:00N 49°51' W 140°57'1 1.1 1024.1 15.8
2014-Aug-27 14:00N 49°50' W 140°59'0 0.0 1023.9 15.9
2014-Aug-27 13:00N 49°50' W 140°59'1 1.0 1023.6 15.9
2014-Aug-27 12:00N 49°49' W 140°58'0 0.0 1023.6 15.9
2014-Aug-27 11:00N 49°49' W 140°58'1 1.0 1023.5 15.9
2014-Aug-27 10:00N 49°49' W 140°56'0 0.0 1023.3 15.9
2014-Aug-27 09:00N 49°49' W 140°56'1 0.7 1023.2 15.9
2014-Aug-27 07:00N 49°51' W 140°55'0 0.3 1022.9 16.0
2014-Aug-27 06:00N 49°51' W 140°55'2 1.6 1022.8 16.0
2014-Aug-27 05:00N 49°50' W 140°58'1 0.6 1022.7 16.0
2014-Aug-27 04:00N 49°50' W 140°58'1 0.6 1022.4 16.0
2014-Aug-27 03:00N 49°50' W 140°57'1 0.6 1022.1 16.1
2014-Aug-27 02:00N 49°50' W 140°58'0 0.2 1021.9 16.1
2014-Aug-27 01:00N 49°50' W 140°58'1 0.8 1021.9 16.1
2014-Aug-27 00:00N 49°50' W 140°58'1 0.9 1021.8 16.0
2014-Aug-26 23:00N 49°50' W 140°59'0 0.0 1021.9 16.0
2014-Aug-26 22:00N 49°50' W 140°59'1 0.6 1021.6 16.0
2014-Aug-26 21:00N 49°49' W 140°59'0 0.1 1021.4 16.0
2014-Aug-26 20:00N 49°49' W 140°59'1 0.3 1021.4 15.9
2014-Aug-26 17:00N 49°50' W 140°58'0 0.2 1020.4 15.9
2014-Aug-26 16:00N 49°50' W 140°58'0 0.2 1020.3 16.0
2014-Aug-26 15:00N 49°50' W 140°58'1 0.9 1020.2 16.0
2014-Aug-26 14:00N 49°50' W 140°59'1 0.7 1019.7 16.0
2014-Aug-26 13:00N 49°50' W 140°58'0 0.5 1019.5 16.0
2014-Aug-26 12:00N 49°50' W 140°59'1 0.4 1019.8 16.0
2014-Aug-26 10:00N 49°49' W 140°58'0 0.2 1020.2 16.0
2014-Aug-26 08:00N 49°49' W 140°58'1 1.0 1020.2 16.0
2014-Aug-26 07:00N 49°50' W 140°58'1 0.9 1020.3 16.0
2014-Aug-26 06:00N 49°51' W 140°58'1 1.3 1020.4 16.0
2014-Aug-26 05:00N 49°50' W 140°59'1 0.6 1020.6 16.0
2014-Aug-26 04:00N 49°49' W 140°59'3 1.6 1020.7 16.0
2014-Aug-26 02:00N 49°52' W 140°57'3 3.2 1020.6 16.1
2014-Aug-26 01:00N 49°50' W 141°00'1 0.5 1020.8 16.1
2014-Aug-26 00:00N 49°49' W 141°01'0 0.0 1020.8 16.1
2014-Aug-25 23:00N 49°49' W 141°01'1 1.0 1020.8 16.0
2014-Aug-25 22:00N 49°49' W 140°59'0 0.1 1020.6 16.0
2014-Aug-25 19:00N 49°49' W 140°60'1 0.8 1021.0 15.8
2014-Aug-25 18:00N 49°50' W 140°59'0 0.0 1021.1 15.7
2014-Aug-25 17:00N 49°50' W 140°59'0 0.2 1021.1 15.7
2014-Aug-25 16:00N 49°49' W 140°59'1 1.3 1020.9 15.7
2014-Aug-25 15:00N 49°50' W 141°01'0 0.1 1020.6 15.7
2014-Aug-25 14:00N 49°50' W 141°01'1 0.8 1020.0 15.7
2014-Aug-25 13:00N 49°49' W 141°02'0 0.0 1020.2 15.7
2014-Aug-25 12:00N 49°49' W 141°02'1 0.3 1020.2 15.7
2014-Aug-25 07:00N 49°49' W 140°60'1 0.8 1020.8 15.8
2014-Aug-25 06:00N 49°50' W 141°01'1 0.6 1021.1 15.8
2014-Aug-25 04:00N 49°50' W 141°02'0 0.0 1021.3 15.8
2014-Aug-25 03:00N 49°50' W 141°02'1 0.6 1021.9 15.8
2014-Aug-25 02:00N 49°50' W 141°03'0 0.1 1022.4 15.8
2014-Aug-25 01:00N 49°50' W 141°03'1 1.2 1022.6 15.8
2014-Aug-25 00:00N 49°50' W 141°04'1 0.8 1023.0 15.8
2014-Aug-24 23:00N 49°50' W 141°03'1 0.7 1023.5 15.8
2014-Aug-24 22:00N 49°50' W 141°04'1 0.5 1024.0 15.8
2014-Aug-24 21:00N 49°49' W 141°04'2 2.1 1024.2 15.7
2014-Aug-24 20:00N 49°50' W 141°07'2 2.3 1024.7 15.7
2014-Aug-24 19:00N 49°49' W 141°04'1 0.3 1025.2 15.7
2014-Aug-24 16:00N 49°50' W 141°04'0 0.4 1025.8 15.7
2014-Aug-24 15:00N 49°50' W 141°04'1 0.5 1025.9 15.7
2014-Aug-24 12:00N 49°50' W 141°06'1 0.7 1026.4 15.7
2014-Aug-24 11:00N 49°49' W 141°06'0 0.0 1026.8 15.7
2014-Aug-24 08:00N 49°49' W 141°06'0 0.1 1027.3 15.7
2014-Aug-24 07:00N 49°49' W 141°06'0 0.0 1027.7 15.7
2014-Aug-24 06:00N 49°49' W 141°06'1 1.1 1027.9 15.7
2014-Aug-24 05:00N 49°50' W 141°07'1 0.8 1028.0 15.7
2014-Aug-24 04:00N 49°50' W 141°06'1 1.2 1028.0 15.7
2014-Aug-24 03:00N 49°50' W 141°08'0 0.0 1028.2 15.7
2014-Aug-24 02:00N 49°50' W 141°08'0 0.5 1028.2 15.7
2014-Aug-24 01:00N 49°50' W 141°07'1 1.5 1028.6 15.7
2014-Aug-24 00:00N 49°50' W 141°09'1 0.8 1028.6 15.7
2014-Aug-23 23:00N 49°50' W 141°08'1 1.1 1028.8 15.7
2014-Aug-23 22:00N 49°49' W 141°08'0 0.3 1028.4 15.7
2014-Aug-23 21:00N 49°48' W 141°09'1 0.3 1028.5 15.7
2014-Aug-23 19:00N 49°48' W 141°08'0 0.0 1028.2 15.6
2014-Aug-23 18:00N 49°48' W 141°08'   1027.9 15.6
Track history (hours):
 
Tides and Currents Weather Stations Pressure Air Temp Water Temp Dewpoint Dewpoint Depression Visibility Wind Speed Wind Dir Waves Ship Positions

Drifting buoy 46611

Last reported at 2014-Sep-02 18:00 UTC. Time now 2014-Sep-02 18:57 UTC.
Position N 49°41' W 140°43'.

Barometer 1028.3 mb
Water temperature 15.7 ° C

Date/timePositionNaut miles runAvg speedWind from/ knotsBaromVisibWave heightAir tempDewpointWater temp
2014-Sep-02 18:00N 49°41' W 140°43'0 0.2 1028.3 15.7
2014-Sep-02 16:00N 49°41' W 140°43'1 0.6 1027.2 15.7
2014-Sep-02 15:00N 49°40' W 140°43'1 0.7 1026.8 15.7
2014-Sep-02 14:00N 49°41' W 140°42'0 0.4 1026.2 15.7
2014-Sep-02 13:00N 49°41' W 140°43'1 1.1 1026.1 15.7
2014-Sep-02 12:00N 49°42' W 140°44'1 0.7 1025.9 15.7
2014-Sep-02 11:00N 49°41' W 140°45'0 0.0 1025.6 15.7
2014-Sep-02 08:00N 49°41' W 140°45'1 0.6 1024.4 15.7
2014-Sep-02 07:00N 49°41' W 140°45'0 0.0 1023.8 15.7
2014-Sep-02 06:00N 49°41' W 140°45'1 0.7 1023.5 15.7
2014-Sep-02 05:00N 49°40' W 140°44'0 0.0 1022.6 15.7
2014-Sep-02 04:00N 49°40' W 140°44'1 0.6 1022.0 15.7
2014-Sep-02 02:00N 49°41' W 140°43'0 0.2 1021.5 15.8
2014-Sep-02 01:00N 49°41' W 140°43'1 0.5 1021.5 15.8
2014-Sep-02 00:00N 49°41' W 140°42'0 0.2 1021.5 15.8
2014-Sep-01 23:00N 49°41' W 140°42'1 0.5 1021.7 15.7
2014-Sep-01 21:00N 49°42' W 140°43'0 0.1 1021.3 15.7
2014-Sep-01 20:00N 49°42' W 140°43'1 1.2 1021.0 15.7
2014-Sep-01 19:00N 49°43' W 140°45'0 0.2 1021.0 15.7
2014-Sep-01 17:00N 49°42' W 140°45'0 0.0 1020.7 15.7
2014-Sep-01 16:00N 49°42' W 140°45'0 0.3 1020.7 15.7
2014-Sep-01 15:00N 49°42' W 140°44'1 0.6 1020.8 15.7
2014-Sep-01 14:00N 49°42' W 140°45'0 0.2 1020.7 15.7
2014-Sep-01 13:00N 49°42' W 140°45'0 0.2 1021.0 15.7
2014-Sep-01 12:00N 49°41' W 140°45'2 2.2 1021.0 15.7
2014-Sep-01 11:00N 49°43' W 140°43'0 0.0 1021.1 15.7
2014-Sep-01 07:00N 49°43' W 140°43'1 0.9 1020.4 15.7
2014-Sep-01 06:00N 49°44' W 140°44'0 0.0 1019.8 15.7
2014-Sep-01 05:00N 49°44' W 140°44'0 0.5 1019.2 15.7
2014-Sep-01 04:00N 49°44' W 140°45'0 0.0 1018.5 15.7
2014-Sep-01 03:00N 49°44' W 140°45'0 0.2 1018.0 15.7
2014-Sep-01 01:00N 49°43' W 140°45'1 0.3 1017.2 15.7
2014-Aug-31 23:00N 49°44' W 140°46'1 0.8 1016.7 15.7
2014-Aug-31 22:00N 49°43' W 140°46'0 0.0 1016.4 15.7
2014-Aug-31 21:00N 49°43' W 140°46'0 0.2 1016.2 15.7
2014-Aug-31 20:00N 49°43' W 140°46'2 0.7 1015.7 15.7
2014-Aug-31 17:00N 49°45' W 140°44'0 0.0 1013.6 15.7
2014-Aug-31 16:00N 49°45' W 140°44'1 1.1 1012.9 15.8
2014-Aug-31 15:00N 49°45' W 140°45'0 0.0 1012.2 15.8
2014-Aug-31 14:00N 49°45' W 140°45'1 1.1 1011.7 15.8
2014-Aug-31 13:00N 49°46' W 140°46'1 0.4 1011.5 15.8
2014-Aug-31 11:00N 49°46' W 140°47'0 0.0 1011.1 15.8
2014-Aug-31 07:00N 49°46' W 140°47'1 0.6 1011.7 15.9
2014-Aug-31 06:00N 49°46' W 140°48'0 0.2 1012.4 15.9
2014-Aug-31 04:00N 49°46' W 140°48'0 0.0 1012.6 16.0
2014-Aug-31 03:00N 49°46' W 140°48'1 0.3 1013.7 16.0
2014-Aug-31 01:00N 49°46' W 140°48'0 0.5 1014.4 16.0
2014-Aug-31 00:00N 49°46' W 140°49'1 0.7 1014.7 16.0
2014-Aug-30 23:00N 49°46' W 140°48'0 0.0 1015.3 16.0
2014-Aug-30 22:00N 49°46' W 140°48'0 0.0 1015.5 16.0
2014-Aug-30 21:00N 49°46' W 140°48'1 0.8 1015.6 15.9
2014-Aug-30 20:00N 49°46' W 140°49'1 1.0 1015.4 15.9
2014-Aug-30 19:00N 49°46' W 140°48'1 0.3 1015.2 15.8
2014-Aug-30 16:00N 49°46' W 140°49'0 0.4 1014.7 15.7
2014-Aug-30 15:00N 49°46' W 140°49'0 0.2 1014.5 15.7
2014-Aug-30 14:00N 49°46' W 140°49'1 0.8 1014.1 15.7
2014-Aug-30 13:00N 49°46' W 140°48'0 0.0 1014.1 15.7
2014-Aug-30 12:00N 49°46' W 140°48'1 1.2 1013.9 15.7
2014-Aug-30 11:00N 49°47' W 140°49'0 0.0 1014.0 15.7
2014-Aug-30 10:00N 49°47' W 140°49'0 0.0 1014.0 15.7
2014-Aug-30 07:00N 49°47' W 140°49'0 0.3 1013.8 15.7
2014-Aug-30 06:00N 49°47' W 140°49'0 0.0 1013.4 15.8
2014-Aug-30 05:00N 49°47' W 140°49'0 0.1 1012.9 15.8
2014-Aug-30 04:00N 49°47' W 140°49'0 0.0 1012.9 15.8
2014-Aug-30 03:00N 49°47' W 140°49'0 0.0 1012.8 15.8
2014-Aug-30 01:00N 49°47' W 140°49'0 0.5 1012.2 15.8
2014-Aug-30 00:00N 49°47' W 140°49'0 0.5 1012.1 15.8
2014-Aug-29 23:00N 49°47' W 140°48'1 0.9 1011.9 15.8
2014-Aug-29 22:00N 49°47' W 140°50'1 0.9 1011.8 15.8
2014-Aug-29 21:00N 49°47' W 140°48'3 2.7 1011.5 15.8
2014-Aug-29 20:00N 49°49' W 140°52'0 0.4 1011.8 15.7
2014-Aug-29 19:00N 49°48' W 140°51'0 0.2 1011.7 15.8
2014-Aug-29 18:00N 49°48' W 140°51'1 0.8 1011.6 15.7
2014-Aug-29 17:00N 49°48' W 140°50'0 0.5 1011.6 15.7
2014-Aug-29 16:00N 49°48' W 140°50'1 0.3 1011.3 15.7
2014-Aug-29 12:00N 49°49' W 140°51'3 1.6 1010.8 15.8
2014-Aug-29 10:00N 49°49' W 140°56'0 0.0 1011.4 15.8
2014-Aug-29 09:00N 49°49' W 140°56'2 1.1 1011.6 15.8
2014-Aug-29 07:00N 49°50' W 140°53'0 0.0 1012.0 15.8
2014-Aug-29 06:00N 49°50' W 140°53'0 0.0 1011.9 15.8
2014-Aug-29 05:00N 49°50' W 140°53'1 1.0 1011.8 15.8
2014-Aug-29 04:00N 49°50' W 140°51'0 0.0 1011.8 15.8
2014-Aug-29 03:00N 49°50' W 140°51'0 0.0 1012.1 15.8
2014-Aug-29 02:00N 49°50' W 140°51'1 0.5 1012.3 15.9
2014-Aug-29 01:00N 49°50' W 140°52'1 0.6 1012.6 15.9
2014-Aug-29 00:00N 49°50' W 140°51'1 0.9 1013.1 15.9
2014-Aug-28 23:00N 49°50' W 140°53'0 0.0 1013.3 15.9
2014-Aug-28 22:00N 49°50' W 140°53'1 0.3 1013.8 15.9
2014-Aug-28 20:00N 49°51' W 140°53'1 0.9 1015.2 15.9
2014-Aug-28 19:00N 49°51' W 140°54'1 0.6 1015.6 15.9
2014-Aug-28 18:00N 49°51' W 140°54'1 0.6 1016.2 15.9
2014-Aug-28 16:00N 49°51' W 140°55'0 0.2 1017.3 15.9
2014-Aug-28 14:00N 49°50' W 140°55'1 0.8 1018.3 15.9
2014-Aug-28 13:00N 49°50' W 140°56'0 0.0 1018.9 15.9
2014-Aug-28 12:00N 49°50' W 140°56'1 0.2 1019.4 15.9
2014-Aug-28 07:00N 49°51' W 140°57'0 0.1 1022.4 16.0
2014-Aug-28 06:00N 49°51' W 140°57'0 0.0 1022.8 16.1
2014-Aug-28 05:00N 49°51' W 140°57'0 0.0 1023.1 16.2
2014-Aug-28 04:00N 49°51' W 140°57'1 0.5 1023.3 16.2
2014-Aug-28 02:00N 49°50' W 140°58'0 0.0 1023.9 16.2
2014-Aug-28 01:00N 49°50' W 140°58'1 1.1 1024.0 16.2
2014-Aug-28 00:00N 49°50' W 140°56'1 0.7 1024.4 16.1
2014-Aug-27 23:00N 49°50' W 140°57'1 0.8 1024.7 16.1
2014-Aug-27 22:00N 49°49' W 140°56'1 0.7 1024.9 16.0
2014-Aug-27 21:00N 49°50' W 140°57'0 0.5 1024.9 16.0
2014-Aug-27 20:00N 49°50' W 140°58'1 0.8 1025.0 15.9
2014-Aug-27 19:00N 49°50' W 140°57'0 0.4 1025.0 15.9
2014-Aug-27 18:00N 49°50' W 140°57'0 0.0 1024.9 15.9
2014-Aug-27 17:00N 49°50' W 140°57'1 0.7 1024.6 15.9
2014-Aug-27 16:00N 49°51' W 140°57'0 0.0 1024.3 15.8
2014-Aug-27 15:00N 49°51' W 140°57'1 1.1 1024.1 15.8
2014-Aug-27 14:00N 49°50' W 140°59'0 0.0 1023.9 15.9
2014-Aug-27 13:00N 49°50' W 140°59'1 1.0 1023.6 15.9
2014-Aug-27 12:00N 49°49' W 140°58'0 0.0 1023.6 15.9
2014-Aug-27 11:00N 49°49' W 140°58'1 1.0 1023.5 15.9
2014-Aug-27 10:00N 49°49' W 140°56'0 0.0 1023.3 15.9
2014-Aug-27 09:00N 49°49' W 140°56'1 0.7 1023.2 15.9
2014-Aug-27 07:00N 49°51' W 140°55'0 0.3 1022.9 16.0
2014-Aug-27 06:00N 49°51' W 140°55'2 1.6 1022.8 16.0
2014-Aug-27 05:00N 49°50' W 140°58'1 0.6 1022.7 16.0
2014-Aug-27 04:00N 49°50' W 140°58'1 0.6 1022.4 16.0
2014-Aug-27 03:00N 49°50' W 140°57'1 0.6 1022.1 16.1
2014-Aug-27 02:00N 49°50' W 140°58'0 0.2 1021.9 16.1
2014-Aug-27 01:00N 49°50' W 140°58'1 0.8 1021.9 16.1
2014-Aug-27 00:00N 49°50' W 140°58'1 0.9 1021.8 16.0
2014-Aug-26 23:00N 49°50' W 140°59'0 0.0 1021.9 16.0
2014-Aug-26 22:00N 49°50' W 140°59'1 0.6 1021.6 16.0
2014-Aug-26 21:00N 49°49' W 140°59'0 0.1 1021.4 16.0
2014-Aug-26 20:00N 49°49' W 140°59'1 0.3 1021.4 15.9
2014-Aug-26 17:00N 49°50' W 140°58'0 0.2 1020.4 15.9
2014-Aug-26 16:00N 49°50' W 140°58'0 0.2 1020.3 16.0
2014-Aug-26 15:00N 49°50' W 140°58'1 0.9 1020.2 16.0
2014-Aug-26 14:00N 49°50' W 140°59'1 0.7 1019.7 16.0
2014-Aug-26 13:00N 49°50' W 140°58'0 0.5 1019.5 16.0
2014-Aug-26 12:00N 49°50' W 140°59'1 0.4 1019.8 16.0
2014-Aug-26 10:00N 49°49' W 140°58'0 0.2 1020.2 16.0
2014-Aug-26 08:00N 49°49' W 140°58'1 1.0 1020.2 16.0
2014-Aug-26 07:00N 49°50' W 140°58'1 0.9 1020.3 16.0
2014-Aug-26 06:00N 49°51' W 140°58'1 1.3 1020.4 16.0
2014-Aug-26 05:00N 49°50' W 140°59'1 0.6 1020.6 16.0
2014-Aug-26 04:00N 49°49' W 140°59'3 1.6 1020.7 16.0
2014-Aug-26 02:00N 49°52' W 140°57'3 3.2 1020.6 16.1
2014-Aug-26 01:00N 49°50' W 141°00'1 0.5 1020.8 16.1
2014-Aug-26 00:00N 49°49' W 141°01'0 0.0 1020.8 16.1
2014-Aug-25 23:00N 49°49' W 141°01'1 1.0 1020.8 16.0
2014-Aug-25 22:00N 49°49' W 140°59'0 0.1 1020.6 16.0
2014-Aug-25 19:00N 49°49' W 140°60'1 0.8 1021.0 15.8
2014-Aug-25 18:00N 49°50' W 140°59'0 0.0 1021.1 15.7
2014-Aug-25 17:00N 49°50' W 140°59'0 0.2 1021.1 15.7
2014-Aug-25 16:00N 49°49' W 140°59'1 1.3 1020.9 15.7
2014-Aug-25 15:00N 49°50' W 141°01'0 0.1 1020.6 15.7
2014-Aug-25 14:00N 49°50' W 141°01'1 0.8 1020.0 15.7
2014-Aug-25 13:00N 49°49' W 141°02'0 0.0 1020.2 15.7
2014-Aug-25 12:00N 49°49' W 141°02'1 0.3 1020.2 15.7
2014-Aug-25 07:00N 49°49' W 140°60'1 0.8 1020.8 15.8
2014-Aug-25 06:00N 49°50' W 141°01'1 0.6 1021.1 15.8
2014-Aug-25 04:00N 49°50' W 141°02'0 0.0 1021.3 15.8
2014-Aug-25 03:00N 49°50' W 141°02'1 0.6 1021.9 15.8
2014-Aug-25 02:00N 49°50' W 141°03'0 0.1 1022.4 15.8
2014-Aug-25 01:00N 49°50' W 141°03'1 1.2 1022.6 15.8
2014-Aug-25 00:00N 49°50' W 141°04'1 0.8 1023.0 15.8
2014-Aug-24 23:00N 49°50' W 141°03'1 0.7 1023.5 15.8
2014-Aug-24 22:00N 49°50' W 141°04'1 0.5 1024.0 15.8
2014-Aug-24 21:00N 49°49' W 141°04'2 2.1 1024.2 15.7
2014-Aug-24 20:00N 49°50' W 141°07'2 2.3 1024.7 15.7
2014-Aug-24 19:00N 49°49' W 141°04'1 0.3 1025.2 15.7
2014-Aug-24 16:00N 49°50' W 141°04'0 0.4 1025.8 15.7
2014-Aug-24 15:00N 49°50' W 141°04'1 0.5 1025.9 15.7
2014-Aug-24 12:00N 49°50' W 141°06'1 0.7 1026.4 15.7
2014-Aug-24 11:00N 49°49' W 141°06'0 0.0 1026.8 15.7
2014-Aug-24 08:00N 49°49' W 141°06'0 0.1 1027.3 15.7
2014-Aug-24 07:00N 49°49' W 141°06'0 0.0 1027.7 15.7
2014-Aug-24 06:00N 49°49' W 141°06'1 1.1 1027.9 15.7
2014-Aug-24 05:00N 49°50' W 141°07'1 0.8 1028.0 15.7
2014-Aug-24 04:00N 49°50' W 141°06'1 1.2 1028.0 15.7
2014-Aug-24 03:00N 49°50' W 141°08'0 0.0 1028.2 15.7
2014-Aug-24 02:00N 49°50' W 141°08'0 0.5 1028.2 15.7
2014-Aug-24 01:00N 49°50' W 141°07'1 1.5 1028.6 15.7
2014-Aug-24 00:00N 49°50' W 141°09'1 0.8 1028.6 15.7
2014-Aug-23 23:00N 49°50' W 141°08'1 1.1 1028.8 15.7
2014-Aug-23 22:00N 49°49' W 141°08'0 0.3 1028.4 15.7
2014-Aug-23 21:00N 49°48' W 141°09'1 0.3 1028.5 15.7
2014-Aug-23 19:00N 49°48' W 141°08'0 0.0 1028.2 15.6
2014-Aug-23 18:00N 49°48' W 141°08'   1027.9 15.6

Dump ship's entire track history